createdAt,value
2018-06-12T00:02:12.869Z,15.68
2018-06-12T00:04:40.298Z,15.63
2018-06-12T00:07:07.750Z,15.61
2018-06-12T00:09:35.754Z,15.56
2018-06-12T00:12:04.050Z,15.59
2018-06-12T00:14:32.621Z,15.65
2018-06-12T00:17:00.709Z,15.64
2018-06-12T00:19:28.159Z,15.54
2018-06-12T00:21:56.303Z,15.61
2018-06-12T00:24:23.969Z,15.49
2018-06-12T00:26:51.413Z,15.55
2018-06-12T00:29:18.893Z,15.49
2018-06-12T00:31:46.263Z,15.42
2018-06-12T00:34:13.917Z,15.43
2018-06-12T00:36:41.965Z,15.47
2018-06-12T00:39:09.445Z,15.44
2018-06-12T00:41:36.874Z,15.50
2018-06-12T00:44:04.368Z,15.37
2018-06-12T00:46:31.788Z,15.52
2018-06-12T00:48:59.509Z,15.40
2018-06-12T00:51:27.822Z,15.44
2018-06-12T00:53:55.207Z,15.31
2018-06-12T00:56:33.982Z,15.46
2018-06-12T00:59:01.448Z,15.36
2018-06-12T01:01:28.837Z,15.40
2018-06-12T01:03:56.244Z,15.44
2018-06-12T01:06:23.661Z,15.31
2018-06-12T01:08:51.113Z,15.30
2018-06-12T01:11:18.748Z,15.34
2018-06-12T01:13:46.213Z,15.36
2018-06-12T01:16:13.790Z,15.41
2018-06-12T01:18:41.441Z,15.34
2018-06-12T01:21:08.984Z,15.27
2018-06-12T01:23:36.417Z,15.29
2018-06-12T01:26:03.970Z,15.35
2018-06-12T01:28:31.750Z,15.31
2018-06-12T01:30:59.261Z,15.33
2018-06-12T01:33:26.717Z,15.36
2018-06-12T01:35:54.163Z,15.23
2018-06-12T01:38:21.668Z,15.44
2018-06-12T01:40:49.038Z,15.48
2018-06-12T01:43:16.429Z,15.50
2018-06-12T01:45:43.831Z,15.57
2018-06-12T01:48:11.408Z,15.49
2018-06-12T01:50:38.873Z,15.50
2018-06-12T01:53:06.317Z,15.58
2018-06-12T01:55:33.989Z,15.62
2018-06-12T01:58:01.450Z,15.63
2018-06-12T02:00:28.872Z,15.63
2018-06-12T02:02:56.543Z,15.52
2018-06-12T02:05:23.921Z,15.62
2018-06-12T02:07:51.669Z,15.73
2018-06-12T02:10:19.266Z,15.74
2018-06-12T02:12:46.663Z,15.75
2018-06-12T02:15:14.071Z,15.85
2018-06-12T02:17:41.518Z,15.76
2018-06-12T02:20:08.970Z,15.76
2018-06-12T02:22:36.538Z,15.77
2018-06-12T02:25:04.513Z,15.71
2018-06-12T02:27:32.125Z,15.76
2018-06-12T02:30:00.113Z,15.76
2018-06-12T02:32:27.604Z,15.85
2018-06-12T02:34:55.362Z,15.81
2018-06-12T02:37:22.797Z,15.73
2018-06-12T02:39:50.312Z,15.66
2018-06-12T02:42:17.674Z,15.64
2018-06-12T02:44:45.173Z,15.65
2018-06-12T02:47:12.733Z,15.82
2018-06-12T02:49:40.424Z,15.69
2018-06-12T02:52:07.869Z,15.85
2018-06-12T02:54:35.250Z,15.85
2018-06-12T02:57:02.978Z,15.89
2018-06-12T02:59:30.477Z,15.85
2018-06-12T03:02:00.066Z,15.88
2018-06-12T03:04:28.022Z,15.86
2018-06-12T03:06:55.509Z,15.83
2018-06-12T03:09:22.893Z,15.87
2018-06-12T03:11:50.381Z,15.78
2018-06-12T03:14:18.033Z,15.80
2018-06-12T03:16:45.612Z,15.90
2018-06-12T03:19:13.094Z,15.94
2018-06-12T03:21:40.467Z,15.83
2018-06-12T03:24:08.100Z,15.94
2018-06-12T03:26:35.555Z,15.98
2018-06-12T03:29:02.963Z,16.01
2018-06-12T03:31:30.442Z,16.03
2018-06-12T03:33:59.309Z,15.96
2018-06-12T03:36:26.861Z,15.96
2018-06-12T03:38:55.116Z,16.01
2018-06-12T03:41:22.629Z,15.93
2018-06-12T03:43:50.205Z,15.95
2018-06-12T03:46:17.863Z,15.81
2018-06-12T03:48:45.291Z,15.78
2018-06-12T03:51:12.751Z,15.84
2018-06-12T03:53:40.160Z,15.74
2018-06-12T03:56:07.628Z,15.66
2018-06-12T03:58:35.031Z,15.72
2018-06-12T04:01:02.585Z,15.71
2018-06-12T04:03:30.056Z,15.68
2018-06-12T04:05:57.415Z,15.77
2018-06-12T04:08:24.984Z,15.73
2018-06-12T04:10:52.389Z,15.69
2018-06-12T04:13:20.483Z,15.59
2018-06-12T04:15:48.088Z,15.63
2018-06-12T04:18:15.521Z,15.68
2018-06-12T04:20:42.936Z,15.54
2018-06-12T04:23:10.442Z,15.61
2018-06-12T04:25:37.833Z,15.66
2018-06-12T04:28:05.307Z,15.62
2018-06-12T04:30:32.795Z,15.74
2018-06-12T04:33:00.556Z,15.64
2018-06-12T04:35:28.010Z,15.80
2018-06-12T04:37:55.727Z,15.85
2018-06-12T04:40:23.239Z,15.78
2018-06-12T04:42:51.062Z,15.82
2018-06-12T04:45:18.599Z,15.83
2018-06-12T04:47:46.000Z,15.91
2018-06-12T04:50:14.253Z,15.81
2018-06-12T04:52:41.657Z,15.92
2018-06-12T04:55:09.066Z,15.74
2018-06-12T04:57:36.589Z,15.85
2018-06-12T05:00:04.113Z,15.77
2018-06-12T05:02:31.809Z,15.85
2018-06-12T05:04:59.557Z,15.94
2018-06-12T05:07:26.953Z,15.95
2018-06-12T05:09:54.397Z,16.03
2018-06-12T05:12:21.793Z,15.90
2018-06-12T05:14:49.205Z,16.10
2018-06-12T05:17:16.657Z,16.10
2018-06-12T05:19:44.154Z,16.22
2018-06-12T05:22:11.533Z,16.12
2018-06-12T05:24:38.905Z,16.17
2018-06-12T05:27:06.286Z,16.12
2018-06-12T05:29:34.154Z,16.00
2018-06-12T05:32:01.774Z,16.14
2018-06-12T05:34:29.300Z,16.11
2018-06-12T05:36:56.922Z,16.16
2018-06-12T05:39:24.785Z,16.20
2018-06-12T05:41:52.371Z,16.20
2018-06-12T05:44:20.222Z,16.26
2018-06-12T05:46:47.652Z,16.28
2018-06-12T05:49:15.116Z,16.35
2018-06-12T05:51:42.800Z,16.32
2018-06-12T05:54:10.482Z,16.41
2018-06-12T05:56:38.493Z,16.35
2018-06-12T05:59:05.892Z,16.35
2018-06-12T06:01:33.291Z,16.59
2018-06-12T06:04:00.798Z,16.71
2018-06-12T06:06:28.353Z,16.63
2018-06-12T06:08:55.883Z,16.55
2018-06-12T06:11:23.272Z,16.63
2018-06-12T06:13:50.892Z,16.74
2018-06-12T06:16:18.409Z,16.72
2018-06-12T06:18:45.866Z,16.82
2018-06-12T06:21:13.235Z,16.96
2018-06-12T06:23:40.932Z,16.91
2018-06-12T06:26:08.512Z,16.87
2018-06-12T06:28:36.191Z,16.84
2018-06-12T06:31:03.662Z,16.86
2018-06-12T06:33:31.069Z,16.78
2018-06-12T06:35:58.568Z,16.87
2018-06-12T06:38:26.118Z,17.09
2018-06-12T06:40:53.773Z,16.89
2018-06-12T06:43:21.221Z,17.04
2018-06-12T06:45:48.897Z,17.04
2018-06-12T06:48:16.414Z,16.83
2018-06-12T06:50:43.879Z,16.87
2018-06-12T06:53:11.292Z,17.08
2018-06-12T06:55:38.698Z,17.08
2018-06-12T06:58:06.068Z,17.02
2018-06-12T07:00:33.477Z,16.88
2018-06-12T07:03:00.872Z,17.03
2018-06-12T07:05:28.357Z,17.13
2018-06-12T07:07:56.032Z,17.15
2018-06-12T07:10:23.564Z,17.03
2018-06-12T07:12:51.058Z,17.00
2018-06-12T07:15:19.276Z,16.99
2018-06-12T07:17:46.691Z,17.09
2018-06-12T07:20:24.388Z,17.18
2018-06-12T07:22:51.961Z,17.28
2018-06-12T07:25:20.073Z,17.35
2018-06-12T07:27:47.503Z,17.59
2018-06-12T07:30:14.896Z,17.56
2018-06-12T07:32:42.337Z,17.64
2018-06-12T07:35:09.801Z,17.57
2018-06-12T07:37:37.427Z,17.30
2018-06-12T07:40:04.815Z,17.63
2018-06-12T07:42:32.392Z,17.48
2018-06-12T07:45:00.065Z,17.42
2018-06-12T07:47:27.817Z,17.15
2018-06-12T07:49:55.176Z,17.39
2018-06-12T07:52:22.677Z,17.34
2018-06-12T07:54:50.105Z,17.44
2018-06-12T07:57:17.532Z,17.25
2018-06-12T07:59:44.902Z,17.35
2018-06-12T08:02:12.330Z,17.48
2018-06-12T08:04:39.727Z,17.40
2018-06-12T08:07:07.161Z,17.36
2018-06-12T08:09:34.917Z,17.23
2018-06-12T08:12:02.551Z,17.23
2018-06-12T08:14:29.994Z,17.29
2018-06-12T08:16:57.882Z,17.36
2018-06-12T08:19:25.310Z,17.39
2018-06-12T08:21:53.537Z,17.52
2018-06-12T08:24:21.118Z,17.55
2018-06-12T08:26:48.565Z,17.53
2018-06-12T08:29:16.678Z,17.53
2018-06-12T08:31:44.202Z,17.53
2018-06-12T08:34:11.889Z,17.66
2018-06-12T08:36:39.463Z,17.70
2018-06-12T08:39:07.698Z,17.76
2018-06-12T08:41:35.208Z,17.81
2018-06-12T08:44:03.165Z,17.70
2018-06-12T08:46:30.776Z,17.74
2018-06-12T08:48:58.188Z,17.64
2018-06-12T08:51:25.616Z,17.76
2018-06-12T08:53:53.125Z,17.72
2018-06-12T08:56:20.645Z,17.69
2018-06-12T08:58:48.249Z,17.80
2018-06-12T09:01:15.744Z,17.78
2018-06-12T09:03:43.206Z,17.94
2018-06-12T09:06:10.681Z,18.02
2018-06-12T09:08:38.111Z,18.02
2018-06-12T09:11:05.641Z,17.89
2018-06-12T09:13:33.066Z,17.96
2018-06-12T09:16:00.613Z,18.09
2018-06-12T09:18:28.079Z,18.55
2018-06-12T09:20:55.588Z,18.34
2018-06-12T09:23:23.244Z,18.44
2018-06-12T09:25:50.727Z,18.22
2018-06-12T09:28:18.238Z,18.29
2018-06-12T09:30:45.717Z,18.18
2018-06-12T09:33:13.197Z,18.13
2018-06-12T09:35:40.659Z,18.06
2018-06-12T09:38:08.098Z,18.20
2018-06-12T09:40:36.254Z,18.27
2018-06-12T09:43:04.977Z,18.18
2018-06-12T09:45:32.486Z,18.15
2018-06-12T09:47:59.979Z,18.02
2018-06-12T09:50:28.247Z,17.97
2018-06-12T09:52:56.494Z,17.91
2018-06-12T09:55:24.585Z,17.91
2018-06-12T09:57:52.051Z,17.78
2018-06-12T10:01:23.305Z,17.88
2018-06-12T10:03:51.985Z,18.01
2018-06-12T10:06:19.417Z,17.88
2018-06-12T10:08:46.906Z,18.04
2018-06-12T10:11:14.364Z,17.96
2018-06-12T10:13:41.876Z,17.99
2018-06-12T10:16:09.391Z,17.74
2018-06-12T10:18:36.928Z,17.70
2018-06-12T10:21:04.549Z,17.69
2018-06-12T10:23:32.061Z,17.58
2018-06-12T10:25:59.519Z,17.68
2018-06-12T10:28:26.950Z,17.88
2018-06-12T10:30:54.574Z,18.05
2018-06-12T10:33:22.006Z,17.95
2018-06-12T10:35:49.462Z,17.92
2018-06-12T10:38:16.973Z,17.81
2018-06-12T10:40:44.503Z,17.79
2018-06-12T10:43:11.924Z,18.04
2018-06-12T10:45:39.446Z,18.03
2018-06-12T10:48:06.917Z,17.94
2018-06-12T10:50:34.368Z,18.01
2018-06-12T10:53:01.932Z,17.61
2018-06-12T10:55:29.374Z,17.73
2018-06-12T10:57:56.865Z,17.49
2018-06-12T11:00:24.305Z,17.43
2018-06-12T11:02:51.733Z,17.44
2018-06-12T11:05:19.173Z,17.40
2018-06-12T11:07:46.606Z,17.43
2018-06-12T11:10:14.020Z,17.54
2018-06-12T11:12:41.425Z,17.66
2018-06-12T11:15:09.028Z,17.92
2018-06-12T11:17:36.574Z,17.95
2018-06-12T11:20:04.159Z,17.96
2018-06-12T11:22:31.614Z,18.05
2018-06-12T11:24:59.038Z,17.87
2018-06-12T11:27:26.631Z,17.66
2018-06-12T11:29:54.133Z,17.75
2018-06-12T11:32:22.113Z,17.40
2018-06-12T11:34:49.622Z,17.68
2018-06-12T11:37:17.083Z,17.56
2018-06-12T11:39:44.500Z,17.53
2018-06-12T11:42:12.114Z,17.54
2018-06-12T11:44:39.572Z,17.64
2018-06-12T11:47:06.970Z,17.61
2018-06-12T11:49:34.339Z,17.25
2018-06-12T11:52:01.811Z,17.20
2018-06-12T11:54:29.322Z,17.29
2018-06-12T11:56:56.792Z,17.41
2018-06-12T11:59:24.861Z,17.31
2018-06-12T12:01:52.325Z,17.44
2018-06-12T12:04:19.809Z,17.25
2018-06-12T12:06:47.185Z,17.34
2018-06-12T12:09:14.607Z,17.30
2018-06-12T12:11:41.983Z,17.17
2018-06-12T12:14:09.428Z,17.30
2018-06-12T12:16:36.819Z,17.40
2018-06-12T12:19:04.348Z,17.29
2018-06-12T12:21:31.797Z,17.05
2018-06-12T12:23:59.210Z,17.29
2018-06-12T12:26:26.616Z,17.27
2018-06-12T12:28:54.140Z,17.28
2018-06-12T12:31:21.609Z,17.29
2018-06-12T12:33:49.024Z,17.34
2018-06-12T12:36:16.448Z,17.21
2018-06-12T12:38:44.424Z,17.17
2018-06-12T12:41:11.864Z,16.92
2018-06-12T12:43:39.274Z,16.92
2018-06-12T12:46:06.739Z,17.00
2018-06-12T12:48:34.349Z,16.86
2018-06-12T12:51:01.874Z,16.72
2018-06-12T12:53:29.934Z,16.83
2018-06-12T12:55:57.421Z,16.89
2018-06-12T12:58:24.896Z,16.78
2018-06-12T13:00:52.389Z,16.88
2018-06-12T13:03:19.893Z,17.01
2018-06-12T13:05:47.639Z,17.04
2018-06-12T13:08:15.176Z,16.82
2018-06-12T13:10:42.703Z,16.89
2018-06-12T13:13:10.114Z,16.75
2018-06-12T13:15:37.525Z,16.84
2018-06-12T13:18:05.090Z,16.85
2018-06-12T13:20:32.620Z,16.94
2018-06-12T13:23:00.032Z,16.54
2018-06-12T13:25:27.540Z,16.68
2018-06-12T13:27:54.918Z,16.59
2018-06-12T13:30:22.373Z,16.48
2018-06-12T13:32:49.836Z,16.37
2018-06-12T13:35:17.303Z,16.84
2018-06-12T13:37:44.852Z,16.61
2018-06-12T13:40:12.222Z,16.34
2018-06-12T13:42:39.571Z,16.34
2018-06-12T13:45:07.037Z,16.43
2018-06-12T13:47:34.574Z,16.22
2018-06-12T13:50:02.110Z,16.48
2018-06-12T13:52:29.612Z,16.66
2018-06-12T13:54:57.165Z,16.68
2018-06-12T13:57:24.612Z,16.41
2018-06-12T13:59:52.079Z,16.45
2018-06-12T14:02:19.563Z,16.28
2018-06-12T14:04:47.870Z,16.51
2018-06-12T14:07:15.377Z,16.50
2018-06-12T14:09:42.817Z,16.67
2018-06-12T14:12:10.290Z,16.62
2018-06-12T14:14:38.690Z,16.42
2018-06-12T14:17:06.964Z,16.54
2018-06-12T14:19:34.420Z,16.58
2018-06-12T14:22:01.859Z,16.58
2018-06-12T14:24:29.291Z,16.98
2018-06-12T14:26:56.710Z,16.99
2018-06-12T14:29:24.170Z,17.38
2018-06-12T14:31:51.639Z,17.37
2018-06-12T14:34:19.031Z,17.17
2018-06-12T14:36:47.217Z,17.01
2018-06-12T14:39:14.697Z,16.81
2018-06-12T14:41:42.205Z,16.92
2018-06-12T14:44:09.617Z,17.11
2018-06-12T14:46:37.176Z,17.54
2018-06-12T14:49:04.640Z,17.48
2018-06-12T14:51:32.150Z,17.58
2018-06-12T14:53:59.631Z,17.69
2018-06-12T14:56:27.062Z,17.57
2018-06-12T14:58:55.024Z,17.64
2018-06-12T15:01:22.509Z,18.10
2018-06-12T15:03:49.972Z,18.47
2018-06-12T15:06:17.550Z,18.83
2018-06-12T15:08:45.028Z,18.96
2018-06-12T15:11:12.595Z,19.27
2018-06-12T15:13:40.066Z,19.23
2018-06-12T15:16:07.563Z,19.07
2018-06-12T15:18:35.084Z,18.65
2018-06-12T15:21:02.649Z,18.59
2018-06-12T15:23:30.911Z,18.77
2018-06-12T15:25:58.396Z,19.03
2018-06-12T15:28:26.443Z,19.03
2018-06-12T15:30:53.985Z,19.05
2018-06-12T15:33:21.572Z,19.03
2018-06-12T15:35:49.005Z,19.63
2018-06-12T15:38:16.588Z,19.21
2018-06-12T15:40:44.129Z,19.40
2018-06-12T15:43:11.705Z,20.04
2018-06-12T15:45:39.242Z,20.44
2018-06-12T15:48:06.750Z,20.37
2018-06-12T15:50:34.229Z,20.73
2018-06-12T15:53:01.716Z,21.08
2018-06-12T15:55:29.229Z,21.60
2018-06-12T15:57:56.942Z,21.63
2018-06-12T16:00:24.541Z,21.80
2018-06-12T16:02:52.166Z,21.67
2018-06-12T16:05:19.762Z,21.88
2018-06-12T16:07:47.241Z,21.47
2018-06-12T16:10:14.817Z,21.72
2018-06-12T16:12:43.039Z,21.36
2018-06-12T16:15:11.145Z,20.98
2018-06-12T16:17:38.661Z,20.09
2018-06-12T16:20:06.161Z,19.68
2018-06-12T16:22:34.314Z,19.25
2018-06-12T16:25:01.807Z,19.44
2018-06-12T16:27:29.422Z,19.15
2018-06-12T16:29:56.879Z,19.24
2018-06-12T16:32:24.922Z,18.75
2018-06-12T16:34:52.492Z,18.77
2018-06-12T16:37:19.967Z,18.53
2018-06-12T16:39:48.037Z,18.09
2018-06-12T16:42:15.513Z,17.83
2018-06-12T16:44:42.955Z,17.50
2018-06-12T16:47:10.430Z,17.68
2018-06-12T16:49:38.069Z,17.95
2018-06-12T16:52:05.591Z,18.29
2018-06-12T16:54:33.221Z,18.09
2018-06-12T16:57:00.746Z,17.89
2018-06-12T16:59:28.188Z,17.94
2018-06-12T17:01:55.719Z,17.91
2018-06-12T17:04:23.272Z,18.15
2018-06-12T17:06:50.810Z,18.10
2018-06-12T17:09:18.227Z,17.84
2018-06-12T17:11:45.657Z,17.78
2018-06-12T17:14:13.267Z,17.49
2018-06-12T17:16:40.770Z,17.28
2018-06-12T17:19:08.261Z,17.31
2018-06-12T17:21:35.781Z,17.26
2018-06-12T17:24:03.337Z,17.20
2018-06-12T17:26:30.870Z,16.93
2018-06-12T17:28:58.297Z,17.11
2018-06-12T17:31:26.550Z,17.13
2018-06-12T17:33:54.150Z,17.08
2018-06-12T17:36:21.637Z,16.85
2018-06-12T17:38:50.507Z,16.95
2018-06-12T17:41:18.573Z,16.63
2018-06-12T17:43:46.814Z,16.77
2018-06-12T17:46:14.205Z,16.77
2018-06-12T17:48:41.653Z,16.84
2018-06-12T17:51:09.218Z,16.92
2018-06-12T17:53:36.735Z,16.90
2018-06-12T17:56:04.267Z,16.74
2018-06-12T17:58:31.683Z,16.81
2018-06-12T18:00:59.210Z,16.54
2018-06-12T18:03:27.259Z,16.39
2018-06-12T18:05:54.773Z,16.35
2018-06-12T18:08:22.427Z,16.09
2018-06-12T18:10:49.869Z,16.15
2018-06-12T18:13:18.119Z,16.14
2018-06-12T18:15:46.968Z,16.05
2018-06-12T18:18:14.452Z,16.11
2018-06-12T18:20:45.716Z,16.10
2018-06-12T18:23:13.137Z,16.04
2018-06-12T18:25:40.694Z,16.03
2018-06-12T18:28:08.169Z,15.96
2018-06-12T18:30:35.623Z,15.79
2018-06-12T18:33:04.049Z,15.68
2018-06-12T18:35:31.537Z,15.76
2018-06-12T18:37:59.034Z,15.83
2018-06-12T18:40:26.631Z,15.83
2018-06-12T18:42:54.118Z,15.80
2018-06-12T18:45:21.633Z,15.68
2018-06-12T18:47:49.097Z,15.48
2018-06-12T18:50:16.709Z,15.28
2018-06-12T18:52:44.108Z,15.47
2018-06-12T18:55:11.554Z,15.44
2018-06-12T18:57:39.041Z,15.46
2018-06-12T19:00:06.813Z,15.38
2018-06-12T19:02:34.286Z,15.28
2018-06-12T19:05:01.818Z,15.18
2018-06-12T19:07:29.173Z,14.99
2018-06-12T19:09:56.587Z,14.92
2018-06-12T19:12:24.130Z,14.89
2018-06-12T19:14:52.530Z,14.87
2018-06-12T19:17:19.999Z,14.98
2018-06-12T19:19:47.468Z,15.06
2018-06-12T19:22:14.934Z,14.96
2018-06-12T19:24:42.414Z,14.68
2018-06-12T19:27:09.931Z,14.74
2018-06-12T19:29:38.690Z,14.71
2018-06-12T19:32:06.145Z,14.82
2018-06-12T19:34:33.654Z,14.79
2018-06-12T19:37:01.044Z,14.59
2018-06-12T19:39:28.560Z,14.82
2018-06-12T19:41:56.216Z,14.69
2018-06-12T19:44:24.529Z,14.83
2018-06-12T19:46:52.021Z,14.81
2018-06-12T19:49:19.504Z,14.71
2018-06-12T19:51:46.910Z,14.81
2018-06-12T19:54:14.471Z,14.70
2018-06-12T19:56:41.949Z,14.74
2018-06-12T19:59:09.359Z,14.67
2018-06-12T20:01:36.836Z,14.68
2018-06-12T20:04:04.324Z,14.52
2018-06-12T20:06:31.848Z,14.69
2018-06-12T20:08:59.319Z,14.71
2018-06-12T20:11:26.699Z,14.85
2018-06-12T20:13:54.089Z,14.89
2018-06-12T20:16:21.495Z,14.70
2018-06-12T20:18:48.969Z,14.70
2018-06-12T20:21:16.444Z,14.72
2018-06-12T20:23:44.318Z,14.64
2018-06-12T20:26:11.925Z,14.75
2018-06-12T20:28:39.945Z,14.81
2018-06-12T20:31:07.355Z,14.69
2018-06-12T20:33:34.753Z,14.68
2018-06-12T20:36:02.145Z,14.86
2018-06-12T20:38:29.536Z,14.78
2018-06-12T20:40:56.930Z,14.73
2018-06-12T20:43:24.892Z,14.66
2018-06-12T20:45:52.390Z,14.70
2018-06-12T20:48:19.796Z,14.76
2018-06-12T20:50:47.228Z,14.71
2018-06-12T20:53:14.684Z,14.66
2018-06-12T20:55:42.088Z,14.75
2018-06-12T20:58:10.003Z,14.73
2018-06-12T21:00:37.545Z,14.88
2018-06-12T21:03:05.016Z,14.92
2018-06-12T21:05:32.408Z,14.89
2018-06-12T21:08:01.196Z,14.85
2018-06-12T21:10:28.627Z,14.84
2018-06-12T21:12:56.105Z,14.80
2018-06-12T21:15:23.496Z,14.77
2018-06-12T21:17:50.909Z,14.76
2018-06-12T21:20:18.305Z,14.77
2018-06-12T21:22:45.898Z,14.58
2018-06-12T21:25:13.500Z,14.59
2018-06-12T21:27:41.043Z,14.65
2018-06-12T21:30:08.784Z,14.70
2018-06-12T21:32:36.542Z,14.69
2018-06-12T21:35:03.930Z,14.76
2018-06-12T21:37:31.494Z,14.67
2018-06-12T21:39:58.996Z,14.71
2018-06-12T21:42:26.409Z,14.60
2018-06-12T21:44:53.833Z,14.60
2018-06-12T21:47:21.320Z,14.59
2018-06-12T21:49:48.753Z,14.57
2018-06-12T21:52:16.152Z,14.35
2018-06-12T21:54:43.573Z,14.43
2018-06-12T21:57:11.064Z,14.52
2018-06-12T21:59:38.531Z,14.47
2018-06-12T22:02:06.184Z,14.38
2018-06-12T22:04:33.680Z,14.38
2018-06-12T22:07:01.054Z,14.36
2018-06-12T22:09:28.482Z,14.40
2018-06-12T22:11:55.884Z,14.39
2018-06-12T22:14:27.502Z,14.40
2018-06-12T22:16:55.326Z,14.37
2018-06-12T22:19:22.813Z,14.38
2018-06-12T22:21:50.220Z,14.43
2018-06-12T22:24:17.814Z,14.35
2018-06-12T22:26:45.364Z,14.40
2018-06-12T22:29:12.768Z,14.41
2018-06-12T22:31:40.219Z,14.31
2018-06-12T22:34:08.465Z,14.48
2018-06-12T22:36:36.557Z,14.46
2018-06-12T22:39:06.717Z,14.46
2018-06-12T22:41:34.203Z,14.52
2018-06-12T22:44:02.471Z,14.53
2018-06-12T22:46:30.008Z,14.50
2018-06-12T22:48:57.453Z,14.52
2018-06-12T22:51:25.344Z,14.48
2018-06-12T22:53:52.759Z,14.52
2018-06-12T22:56:20.854Z,14.57
2018-06-12T22:58:48.296Z,14.56
2018-06-12T23:01:15.758Z,14.60
2018-06-12T23:03:43.169Z,14.52
2018-06-12T23:06:10.674Z,14.55
2018-06-12T23:08:38.084Z,14.60
2018-06-12T23:11:05.593Z,14.67
2018-06-12T23:13:33.046Z,14.63
2018-06-12T23:16:00.451Z,14.66
2018-06-12T23:18:27.989Z,14.63
2018-06-12T23:22:03.612Z,14.68
2018-06-12T23:24:31.041Z,14.71
2018-06-12T23:26:58.466Z,14.76
2018-06-12T23:29:26.472Z,14.79
2018-06-12T23:31:53.931Z,14.82
2018-06-12T23:34:21.344Z,14.81
2018-06-12T23:36:48.867Z,14.74
2018-06-12T23:39:16.494Z,14.65
2018-06-12T23:41:44.175Z,14.69
2018-06-12T23:44:11.589Z,14.66
2018-06-12T23:46:39.018Z,14.74
2018-06-12T23:49:06.604Z,14.75
2018-06-12T23:51:34.055Z,14.54
2018-06-12T23:54:01.483Z,14.60
2018-06-12T23:56:29.044Z,14.65
2018-06-12T23:58:56.636Z,14.59
